sensor_id;sensor_type;location;lat;lon;timestamp;P1;durP1;ratioP1;P2;durP2;ratioP2
18445;SDS011;9352;50.888;4.466;2022-12-18T00:00:59;102.87;;;23.30;;
18445;SDS011;9352;50.888;4.466;2022-12-18T00:03:30;70.53;;;23.20;;
18445;SDS011;9352;50.888;4.466;2022-12-18T00:06:00;73.10;;;24.13;;
18445;SDS011;9352;50.888;4.466;2022-12-18T00:08:28;67.73;;;22.83;;
18445;SDS011;9352;50.888;4.466;2022-12-18T00:10:55;73.93;;;24.07;;
18445;SDS011;9352;50.888;4.466;2022-12-18T00:13:29;66.40;;;22.20;;
18445;SDS011;9352;50.888;4.466;2022-12-18T00:16:00;62.97;;;23.40;;
18445;SDS011;9352;50.888;4.466;2022-12-18T00:18:27;69.00;;;22.33;;
18445;SDS011;9352;50.888;4.466;2022-12-18T00:20:57;75.33;;;23.63;;
18445;SDS011;9352;50.888;4.466;2022-12-18T00:23:25;68.00;;;22.57;;
18445;SDS011;9352;50.888;4.466;2022-12-18T00:25:52;66.87;;;21.57;;
18445;SDS011;9352;50.888;4.466;2022-12-18T00:28:19;62.13;;;23.10;;
18445;SDS011;9352;50.888;4.466;2022-12-18T00:30:46;65.10;;;22.77;;
18445;SDS011;9352;50.888;4.466;2022-12-18T00:33:17;75.37;;;23.57;;
18445;SDS011;9352;50.888;4.466;2022-12-18T00:35:44;77.73;;;23.57;;
18445;SDS011;9352;50.888;4.466;2022-12-18T00:38:11;61.20;;;21.50;;
18445;SDS011;9352;50.888;4.466;2022-12-18T00:40:40;69.03;;;21.80;;
18445;SDS011;9352;50.888;4.466;2022-12-18T00:43:07;70.70;;;22.67;;
18445;SDS011;9352;50.888;4.466;2022-12-18T00:45:33;67.60;;;21.70;;
18445;SDS011;9352;50.888;4.466;2022-12-18T00:48:00;71.17;;;23.23;;
18445;SDS011;9352;50.888;4.466;2022-12-18T00:50:28;64.80;;;22.30;;
18445;SDS011;9352;50.888;4.466;2022-12-18T00:52:55;70.43;;;22.13;;
18445;SDS011;9352;50.888;4.466;2022-12-18T00:55:22;54.03;;;20.03;;
18445;SDS011;9352;50.888;4.466;2022-12-18T00:57:50;68.13;;;23.13;;
18445;SDS011;9352;50.888;4.466;2022-12-18T01:00:17;67.37;;;21.90;;
18445;SDS011;9352;50.888;4.466;2022-12-18T01:02:44;63.57;;;21.20;;
18445;SDS011;9352;50.888;4.466;2022-12-18T01:05:11;57.40;;;20.40;;
18445;SDS011;9352;50.888;4.466;2022-12-18T01:07:41;58.33;;;20.87;;
18445;SDS011;9352;50.888;4.466;2022-12-18T01:10:09;59.87;;;19.90;;
18445;SDS011;9352;50.888;4.466;2022-12-18T01:12:37;52.27;;;19.47;;
18445;SDS011;9352;50.888;4.466;2022-12-18T01:15:05;47.93;;;18.17;;
18445;SDS011;9352;50.888;4.466;2022-12-18T01:17:34;58.77;;;21.07;;
18445;SDS011;9352;50.888;4.466;2022-12-18T01:20:01;53.33;;;20.00;;
18445;SDS011;9352;50.888;4.466;2022-12-18T01:22:28;53.47;;;18.67;;
18445;SDS011;9352;50.888;4.466;2022-12-18T01:24:56;51.77;;;19.47;;
18445;SDS011;9352;50.888;4.466;2022-12-18T01:27:23;60.30;;;19.63;;
18445;SDS011;9352;50.888;4.466;2022-12-18T01:29:50;46.13;;;17.33;;
18445;SDS011;9352;50.888;4.466;2022-12-18T01:32:17;49.30;;;18.47;;
18445;SDS011;9352;50.888;4.466;2022-12-18T01:34:44;54.83;;;19.23;;
18445;SDS011;9352;50.888;4.466;2022-12-18T01:37:11;56.53;;;19.70;;
18445;SDS011;9352;50.888;4.466;2022-12-18T01:39:38;48.57;;;18.30;;
18445;SDS011;9352;50.888;4.466;2022-12-18T01:42:10;50.20;;;18.30;;
18445;SDS011;9352;50.888;4.466;2022-12-18T01:44:53;44.53;;;16.93;;
18445;SDS011;9352;50.888;4.466;2022-12-18T01:47:23;52.10;;;17.90;;
18445;SDS011;9352;50.888;4.466;2022-12-18T01:49:53;52.80;;;17.37;;
18445;SDS011;9352;50.888;4.466;2022-12-18T01:52:21;46.40;;;17.30;;
18445;SDS011;9352;50.888;4.466;2022-12-18T01:54:50;51.90;;;18.30;;
18445;SDS011;9352;50.888;4.466;2022-12-18T01:57:19;45.33;;;16.33;;
18445;SDS011;9352;50.888;4.466;2022-12-18T01:59:47;45.80;;;17.40;;
18445;SDS011;9352;50.888;4.466;2022-12-18T02:02:18;50.03;;;17.47;;
18445;SDS011;9352;50.888;4.466;2022-12-18T02:04:47;48.83;;;17.67;;
18445;SDS011;9352;50.888;4.466;2022-12-18T02:07:14;49.00;;;16.77;;
18445;SDS011;9352;50.888;4.466;2022-12-18T02:09:47;47.00;;;17.23;;
18445;SDS011;9352;50.888;4.466;2022-12-18T02:12:17;46.77;;;17.13;;
18445;SDS011;9352;50.888;4.466;2022-12-18T02:14:49;43.90;;;17.17;;
18445;SDS011;9352;50.888;4.466;2022-12-18T02:17:25;49.57;;;16.73;;
18445;SDS011;9352;50.888;4.466;2022-12-18T02:20:01;40.70;;;16.13;;
18445;SDS011;9352;50.888;4.466;2022-12-18T02:22:43;44.70;;;16.37;;
18445;SDS011;9352;50.888;4.466;2022-12-18T02:25:20;45.37;;;15.77;;
18445;SDS011;9352;50.888;4.466;2022-12-18T02:27:55;43.70;;;15.43;;
18445;SDS011;9352;50.888;4.466;2022-12-18T02:30:23;47.53;;;16.53;;
18445;SDS011;9352;50.888;4.466;2022-12-18T02:32:52;46.87;;;16.30;;
18445;SDS011;9352;50.888;4.466;2022-12-18T02:35:22;49.77;;;16.30;;
18445;SDS011;9352;50.888;4.466;2022-12-18T02:37:51;44.43;;;16.07;;
18445;SDS011;9352;50.888;4.466;2022-12-18T02:40:20;48.23;;;16.23;;
18445;SDS011;9352;50.888;4.466;2022-12-18T02:42:50;42.73;;;16.13;;
18445;SDS011;9352;50.888;4.466;2022-12-18T02:45:18;44.37;;;15.60;;
18445;SDS011;9352;50.888;4.466;2022-12-18T02:47:46;44.17;;;16.30;;
18445;SDS011;9352;50.888;4.466;2022-12-18T02:50:16;39.10;;;15.10;;
18445;SDS011;9352;50.888;4.466;2022-12-18T02:52:49;46.27;;;15.70;;
18445;SDS011;9352;50.888;4.466;2022-12-18T02:55:27;42.60;;;15.50;;
18445;SDS011;9352;50.888;4.466;2022-12-18T02:58:02;40.37;;;15.23;;
18445;SDS011;9352;50.888;4.466;2022-12-18T03:00:37;45.40;;;15.93;;
18445;SDS011;9352;50.888;4.466;2022-12-18T03:03:11;54.03;;;16.27;;
18445;SDS011;9352;50.888;4.466;2022-12-18T03:05:43;44.73;;;16.30;;
18445;SDS011;9352;50.888;4.466;2022-12-18T03:08:14;40.77;;;15.60;;
18445;SDS011;9352;50.888;4.466;2022-12-18T03:10:45;43.30;;;15.33;;
18445;SDS011;9352;50.888;4.466;2022-12-18T03:13:20;41.30;;;15.10;;
18445;SDS011;9352;50.888;4.466;2022-12-18T03:15:53;40.80;;;14.67;;
18445;SDS011;9352;50.888;4.466;2022-12-18T03:18:23;44.80;;;15.43;;
18445;SDS011;9352;50.888;4.466;2022-12-18T03:20:53;42.87;;;15.43;;
18445;SDS011;9352;50.888;4.466;2022-12-18T03:23:27;42.30;;;15.43;;
18445;SDS011;9352;50.888;4.466;2022-12-18T03:25:58;44.93;;;16.23;;
18445;SDS011;9352;50.888;4.466;2022-12-18T03:28:29;47.33;;;16.27;;
18445;SDS011;9352;50.888;4.466;2022-12-18T03:31:01;41.97;;;16.10;;
18445;SDS011;9352;50.888;4.466;2022-12-18T03:33:30;42.30;;;15.73;;
18445;SDS011;9352;50.888;4.466;2022-12-18T03:36:04;48.47;;;15.70;;
18445;SDS011;9352;50.888;4.466;2022-12-18T03:38:31;46.73;;;16.47;;
18445;SDS011;9352;50.888;4.466;2022-12-18T03:40:59;40.67;;;15.07;;
18445;SDS011;9352;50.888;4.466;2022-12-18T03:43:35;44.80;;;15.60;;
18445;SDS011;9352;50.888;4.466;2022-12-18T03:46:11;42.43;;;14.33;;
18445;SDS011;9352;50.888;4.466;2022-12-18T03:48:43;50.23;;;16.70;;
18445;SDS011;9352;50.888;4.466;2022-12-18T03:51:14;39.40;;;15.67;;
18445;SDS011;9352;50.888;4.466;2022-12-18T03:53:49;40.77;;;15.70;;
18445;SDS011;9352;50.888;4.466;2022-12-18T03:56:22;42.17;;;14.43;;
18445;SDS011;9352;50.888;4.466;2022-12-18T03:58:52;43.40;;;15.33;;
18445;SDS011;9352;50.888;4.466;2022-12-18T04:01:23;47.37;;;15.43;;
18445;SDS011;9352;50.888;4.466;2022-12-18T04:03:54;40.50;;;14.40;;
18445;SDS011;9352;50.888;4.466;2022-12-18T04:06:25;39.10;;;14.70;;
18445;SDS011;9352;50.888;4.466;2022-12-18T04:08:54;35.47;;;13.67;;
18445;SDS011;9352;50.888;4.466;2022-12-18T04:11:22;43.57;;;14.93;;
18445;SDS011;9352;50.888;4.466;2022-12-18T04:13:49;36.80;;;14.47;;
18445;SDS011;9352;50.888;4.466;2022-12-18T04:16:15;39.77;;;14.10;;
18445;SDS011;9352;50.888;4.466;2022-12-18T04:18:44;39.63;;;14.87;;
18445;SDS011;9352;50.888;4.466;2022-12-18T04:21:11;40.10;;;15.47;;
18445;SDS011;9352;50.888;4.466;2022-12-18T04:23:37;40.27;;;14.23;;
18445;SDS011;9352;50.888;4.466;2022-12-18T04:26:04;43.03;;;14.93;;
18445;SDS011;9352;50.888;4.466;2022-12-18T04:28:31;41.23;;;15.73;;
18445;SDS011;9352;50.888;4.466;2022-12-18T04:30:58;41.20;;;15.47;;
18445;SDS011;9352;50.888;4.466;2022-12-18T04:33:25;44.30;;;15.07;;
18445;SDS011;9352;50.888;4.466;2022-12-18T04:35:54;40.77;;;14.53;;
18445;SDS011;9352;50.888;4.466;2022-12-18T04:38:20;36.80;;;14.47;;
18445;SDS011;9352;50.888;4.466;2022-12-18T04:40:47;40.80;;;14.50;;
18445;SDS011;9352;50.888;4.466;2022-12-18T04:43:14;41.27;;;15.10;;
18445;SDS011;9352;50.888;4.466;2022-12-18T04:45:41;37.00;;;14.13;;
18445;SDS011;9352;50.888;4.466;2022-12-18T04:48:08;37.13;;;13.47;;
18445;SDS011;9352;50.888;4.466;2022-12-18T04:50:35;38.67;;;14.50;;
18445;SDS011;9352;50.888;4.466;2022-12-18T04:53:03;37.37;;;14.03;;
18445;SDS011;9352;50.888;4.466;2022-12-18T04:55:30;37.53;;;14.37;;
18445;SDS011;9352;50.888;4.466;2022-12-18T04:57:57;39.30;;;14.57;;
18445;SDS011;9352;50.888;4.466;2022-12-18T05:00:24;44.50;;;15.83;;
18445;SDS011;9352;50.888;4.466;2022-12-18T05:02:51;38.37;;;14.77;;
18445;SDS011;9352;50.888;4.466;2022-12-18T05:05:18;36.73;;;14.63;;
18445;SDS011;9352;50.888;4.466;2022-12-18T05:07:45;37.97;;;14.40;;
18445;SDS011;9352;50.888;4.466;2022-12-18T05:10:13;43.47;;;15.50;;
18445;SDS011;9352;50.888;4.466;2022-12-18T05:12:40;37.80;;;14.00;;
18445;SDS011;9352;50.888;4.466;2022-12-18T05:15:20;42.03;;;15.27;;
18445;SDS011;9352;50.888;4.466;2022-12-18T05:17:47;40.60;;;14.27;;
18445;SDS011;9352;50.888;4.466;2022-12-18T05:20:14;42.20;;;15.63;;
18445;SDS011;9352;50.888;4.466;2022-12-18T05:22:43;36.37;;;14.13;;
18445;SDS011;9352;50.888;4.466;2022-12-18T05:25:10;43.37;;;14.97;;
18445;SDS011;9352;50.888;4.466;2022-12-18T05:27:38;46.30;;;15.13;;
18445;SDS011;9352;50.888;4.466;2022-12-18T05:30:05;39.50;;;15.30;;
18445;SDS011;9352;50.888;4.466;2022-12-18T05:32:33;42.93;;;14.77;;
18445;SDS011;9352;50.888;4.466;2022-12-18T05:35:00;39.77;;;15.10;;
18445;SDS011;9352;50.888;4.466;2022-12-18T05:37:27;41.53;;;14.70;;
18445;SDS011;9352;50.888;4.466;2022-12-18T05:39:53;35.37;;;14.43;;
18445;SDS011;9352;50.888;4.466;2022-12-18T05:42:21;36.07;;;14.87;;
18445;SDS011;9352;50.888;4.466;2022-12-18T05:44:49;37.33;;;13.73;;
18445;SDS011;9352;50.888;4.466;2022-12-18T05:47:16;37.67;;;13.90;;
18445;SDS011;9352;50.888;4.466;2022-12-18T05:49:43;42.13;;;13.77;;
18445;SDS011;9352;50.888;4.466;2022-12-18T05:52:10;34.30;;;13.93;;
18445;SDS011;9352;50.888;4.466;2022-12-18T05:54:36;36.07;;;12.73;;
18445;SDS011;9352;50.888;4.466;2022-12-18T05:57:04;32.90;;;13.03;;
18445;SDS011;9352;50.888;4.466;2022-12-18T05:59:30;37.13;;;12.83;;
18445;SDS011;9352;50.888;4.466;2022-12-18T06:01:59;37.10;;;13.83;;
18445;SDS011;9352;50.888;4.466;2022-12-18T06:04:26;32.83;;;13.67;;
18445;SDS011;9352;50.888;4.466;2022-12-18T06:06:56;36.30;;;14.83;;
18445;SDS011;9352;50.888;4.466;2022-12-18T06:09:22;41.30;;;14.90;;
18445;SDS011;9352;50.888;4.466;2022-12-18T06:11:50;38.10;;;14.33;;
18445;SDS011;9352;50.888;4.466;2022-12-18T06:14:18;41.57;;;14.90;;
18445;SDS011;9352;50.888;4.466;2022-12-18T06:16:45;45.63;;;15.07;;
18445;SDS011;9352;50.888;4.466;2022-12-18T06:19:15;39.10;;;14.97;;
18445;SDS011;9352;50.888;4.466;2022-12-18T06:21:42;42.47;;;14.67;;
18445;SDS011;9352;50.888;4.466;2022-12-18T06:24:09;39.50;;;15.03;;
18445;SDS011;9352;50.888;4.466;2022-12-18T06:26:36;35.30;;;14.07;;
18445;SDS011;9352;50.888;4.466;2022-12-18T06:29:03;42.13;;;14.93;;
18445;SDS011;9352;50.888;4.466;2022-12-18T06:31:30;35.23;;;13.33;;
18445;SDS011;9352;50.888;4.466;2022-12-18T06:33:57;41.93;;;14.17;;
18445;SDS011;9352;50.888;4.466;2022-12-18T06:36:26;34.67;;;12.50;;
18445;SDS011;9352;50.888;4.466;2022-12-18T06:38:56;37.80;;;14.03;;
18445;SDS011;9352;50.888;4.466;2022-12-18T06:41:23;39.70;;;14.93;;
18445;SDS011;9352;50.888;4.466;2022-12-18T06:43:50;37.37;;;14.40;;
18445;SDS011;9352;50.888;4.466;2022-12-18T06:46:17;38.37;;;14.00;;
18445;SDS011;9352;50.888;4.466;2022-12-18T06:48:46;33.27;;;13.30;;
18445;SDS011;9352;50.888;4.466;2022-12-18T06:51:15;31.60;;;12.10;;
18445;SDS011;9352;50.888;4.466;2022-12-18T06:53:44;32.90;;;12.10;;
18445;SDS011;9352;50.888;4.466;2022-12-18T06:56:11;36.03;;;12.83;;
18445;SDS011;9352;50.888;4.466;2022-12-18T06:58:38;36.13;;;11.93;;
18445;SDS011;9352;50.888;4.466;2022-12-18T07:01:06;34.20;;;12.80;;
18445;SDS011;9352;50.888;4.466;2022-12-18T07:03:34;32.43;;;12.33;;
18445;SDS011;9352;50.888;4.466;2022-12-18T07:06:01;28.33;;;11.77;;
18445;SDS011;9352;50.888;4.466;2022-12-18T07:08:29;33.57;;;11.63;;
18445;SDS011;9352;50.888;4.466;2022-12-18T07:10:57;34.53;;;11.67;;
18445;SDS011;9352;50.888;4.466;2022-12-18T07:13:24;25.00;;;10.67;;
18445;SDS011;9352;50.888;4.466;2022-12-18T07:15:51;31.73;;;12.50;;
18445;SDS011;9352;50.888;4.466;2022-12-18T07:18:18;31.47;;;11.50;;
18445;SDS011;9352;50.888;4.466;2022-12-18T07:20:45;31.83;;;11.70;;
18445;SDS011;9352;50.888;4.466;2022-12-18T07:23:12;24.93;;;10.87;;
18445;SDS011;9352;50.888;4.466;2022-12-18T07:25:39;30.23;;;11.20;;
18445;SDS011;9352;50.888;4.466;2022-12-18T07:28:08;30.27;;;11.03;;
18445;SDS011;9352;50.888;4.466;2022-12-18T07:30:36;28.23;;;11.13;;
18445;SDS011;9352;50.888;4.466;2022-12-18T07:33:03;31.33;;;11.37;;
18445;SDS011;9352;50.888;4.466;2022-12-18T07:35:30;30.80;;;11.23;;
18445;SDS011;9352;50.888;4.466;2022-12-18T07:37:59;30.30;;;11.10;;
18445;SDS011;9352;50.888;4.466;2022-12-18T07:40:25;28.40;;;11.10;;
18445;SDS011;9352;50.888;4.466;2022-12-18T07:42:52;27.97;;;11.37;;
18445;SDS011;9352;50.888;4.466;2022-12-18T07:45:20;27.40;;;10.70;;
18445;SDS011;9352;50.888;4.466;2022-12-18T07:47:47;29.30;;;10.53;;
18445;SDS011;9352;50.888;4.466;2022-12-18T07:50:14;28.37;;;10.73;;
18445;SDS011;9352;50.888;4.466;2022-12-18T07:52:41;26.40;;;11.40;;
18445;SDS011;9352;50.888;4.466;2022-12-18T07:55:08;28.87;;;10.73;;
18445;SDS011;9352;50.888;4.466;2022-12-18T07:57:35;29.50;;;11.57;;
18445;SDS011;9352;50.888;4.466;2022-12-18T08:00:02;29.57;;;10.70;;
18445;SDS011;9352;50.888;4.466;2022-12-18T08:02:31;24.13;;;10.70;;
18445;SDS011;9352;50.888;4.466;2022-12-18T08:04:58;28.23;;;10.83;;
18445;SDS011;9352;50.888;4.466;2022-12-18T08:07:25;27.80;;;11.23;;
18445;SDS011;9352;50.888;4.466;2022-12-18T08:09:52;35.37;;;11.37;;
18445;SDS011;9352;50.888;4.466;2022-12-18T08:12:19;28.47;;;11.70;;
18445;SDS011;9352;50.888;4.466;2022-12-18T08:14:46;27.60;;;10.90;;
18445;SDS011;9352;50.888;4.466;2022-12-18T08:17:12;28.57;;;11.37;;
18445;SDS011;9352;50.888;4.466;2022-12-18T08:19:41;25.43;;;10.50;;
18445;SDS011;9352;50.888;4.466;2022-12-18T08:22:08;31.37;;;10.93;;
18445;SDS011;9352;50.888;4.466;2022-12-18T08:24:34;29.27;;;12.23;;
18445;SDS011;9352;50.888;4.466;2022-12-18T08:27:01;26.03;;;11.70;;
18445;SDS011;9352;50.888;4.466;2022-12-18T08:29:28;29.17;;;12.07;;
18445;SDS011;9352;50.888;4.466;2022-12-18T08:31:56;30.10;;;11.70;;
18445;SDS011;9352;50.888;4.466;2022-12-18T08:34:23;27.33;;;11.40;;
18445;SDS011;9352;50.888;4.466;2022-12-18T08:36:52;25.60;;;10.47;;
18445;SDS011;9352;50.888;4.466;2022-12-18T08:39:18;24.33;;;10.73;;
18445;SDS011;9352;50.888;4.466;2022-12-18T08:41:45;24.90;;;9.80;;
18445;SDS011;9352;50.888;4.466;2022-12-18T08:44:32;19.90;;;8.70;;
18445;SDS011;9352;50.888;4.466;2022-12-18T08:47:04;22.83;;;8.87;;
18445;SDS011;9352;50.888;4.466;2022-12-18T08:49:32;17.80;;;8.30;;
18445;SDS011;9352;50.888;4.466;2022-12-18T08:52:00;19.07;;;8.63;;
18445;SDS011;9352;50.888;4.466;2022-12-18T08:54:28;16.93;;;8.07;;
18445;SDS011;9352;50.888;4.466;2022-12-18T08:56:55;20.37;;;7.77;;
18445;SDS011;9352;50.888;4.466;2022-12-18T08:59:21;16.73;;;7.47;;
18445;SDS011;9352;50.888;4.466;2022-12-18T09:01:49;18.53;;;7.83;;
18445;SDS011;9352;50.888;4.466;2022-12-18T09:04:16;19.27;;;7.93;;
18445;SDS011;9352;50.888;4.466;2022-12-18T09:06:43;14.83;;;7.03;;
18445;SDS011;9352;50.888;4.466;2022-12-18T09:09:11;19.07;;;8.00;;
18445;SDS011;9352;50.888;4.466;2022-12-18T09:11:38;17.07;;;7.73;;
18445;SDS011;9352;50.888;4.466;2022-12-18T09:14:05;17.93;;;7.93;;
18445;SDS011;9352;50.888;4.466;2022-12-18T09:16:32;16.27;;;7.83;;
18445;SDS011;9352;50.888;4.466;2022-12-18T09:19:00;16.27;;;7.77;;
18445;SDS011;9352;50.888;4.466;2022-12-18T09:21:28;17.67;;;8.40;;
18445;SDS011;9352;50.888;4.466;2022-12-18T09:23:56;24.73;;;8.00;;
18445;SDS011;9352;50.888;4.466;2022-12-18T09:26:25;19.03;;;8.60;;
18445;SDS011;9352;50.888;4.466;2022-12-18T09:28:52;19.10;;;8.60;;
18445;SDS011;9352;50.888;4.466;2022-12-18T09:31:21;16.97;;;7.97;;
18445;SDS011;9352;50.888;4.466;2022-12-18T09:33:48;18.50;;;8.00;;
18445;SDS011;9352;50.888;4.466;2022-12-18T09:36:16;15.97;;;7.50;;
18445;SDS011;9352;50.888;4.466;2022-12-18T09:38:44;19.23;;;6.97;;
18445;SDS011;9352;50.888;4.466;2022-12-18T09:41:15;16.03;;;7.37;;
18445;SDS011;9352;50.888;4.466;2022-12-18T09:43:54;16.27;;;7.33;;
18445;SDS011;9352;50.888;4.466;2022-12-18T09:46:25;18.93;;;7.40;;
18445;SDS011;9352;50.888;4.466;2022-12-18T09:48:56;15.53;;;7.80;;
18445;SDS011;9352;50.888;4.466;2022-12-18T09:51:26;17.17;;;7.40;;
18445;SDS011;9352;50.888;4.466;2022-12-18T09:53:56;14.53;;;7.07;;
18445;SDS011;9352;50.888;4.466;2022-12-18T09:56:28;15.63;;;7.40;;
18445;SDS011;9352;50.888;4.466;2022-12-18T09:58:59;13.93;;;7.20;;
18445;SDS011;9352;50.888;4.466;2022-12-18T10:01:28;16.80;;;7.30;;
18445;SDS011;9352;50.888;4.466;2022-12-18T10:03:58;16.33;;;8.00;;
18445;SDS011;9352;50.888;4.466;2022-12-18T10:06:27;18.97;;;8.20;;
18445;SDS011;9352;50.888;4.466;2022-12-18T10:08:59;14.80;;;7.90;;
18445;SDS011;9352;50.888;4.466;2022-12-18T10:11:34;16.03;;;7.57;;
18445;SDS011;9352;50.888;4.466;2022-12-18T10:14:12;15.17;;;7.53;;
18445;SDS011;9352;50.888;4.466;2022-12-18T10:16:47;17.90;;;8.20;;
18445;SDS011;9352;50.888;4.466;2022-12-18T10:19:31;17.83;;;8.53;;
18445;SDS011;9352;50.888;4.466;2022-12-18T10:22:07;17.57;;;8.47;;
18445;SDS011;9352;50.888;4.466;2022-12-18T10:24:44;14.97;;;7.67;;
18445;SDS011;9352;50.888;4.466;2022-12-18T10:27:21;17.03;;;7.90;;
18445;SDS011;9352;50.888;4.466;2022-12-18T10:29:51;16.60;;;7.40;;
18445;SDS011;9352;50.888;4.466;2022-12-18T10:32:20;16.00;;;7.70;;
18445;SDS011;9352;50.888;4.466;2022-12-18T10:34:48;21.70;;;9.23;;
18445;SDS011;9352;50.888;4.466;2022-12-18T10:37:17;19.07;;;8.73;;
18445;SDS011;9352;50.888;4.466;2022-12-18T10:39:46;19.63;;;9.10;;
18445;SDS011;9352;50.888;4.466;2022-12-18T10:42:30;30.17;;;9.43;;
18445;SDS011;9352;50.888;4.466;2022-12-18T10:45:01;19.90;;;9.43;;
18445;SDS011;9352;50.888;4.466;2022-12-18T10:47:29;19.67;;;9.60;;
18445;SDS011;9352;50.888;4.466;2022-12-18T10:49:56;24.03;;;9.90;;
18445;SDS011;9352;50.888;4.466;2022-12-18T10:52:24;19.70;;;9.70;;
18445;SDS011;9352;50.888;4.466;2022-12-18T10:54:53;20.20;;;9.87;;
18445;SDS011;9352;50.888;4.466;2022-12-18T10:57:30;17.87;;;9.00;;
18445;SDS011;9352;50.888;4.466;2022-12-18T11:00:01;20.60;;;10.10;;
18445;SDS011;9352;50.888;4.466;2022-12-18T11:02:50;22.87;;;10.77;;
18445;SDS011;9352;50.888;4.466;2022-12-18T11:05:25;22.87;;;10.70;;
18445;SDS011;9352;50.888;4.466;2022-12-18T11:07:54;19.87;;;10.43;;
18445;SDS011;9352;50.888;4.466;2022-12-18T11:10:22;22.60;;;10.60;;
18445;SDS011;9352;50.888;4.466;2022-12-18T11:12:52;22.50;;;10.40;;
18445;SDS011;9352;50.888;4.466;2022-12-18T11:15:21;22.47;;;10.70;;
18445;SDS011;9352;50.888;4.466;2022-12-18T11:17:52;20.07;;;10.00;;
18445;SDS011;9352;50.888;4.466;2022-12-18T11:20:20;28.53;;;12.57;;
18445;SDS011;9352;50.888;4.466;2022-12-18T11:22:54;24.33;;;10.17;;
18445;SDS011;9352;50.888;4.466;2022-12-18T11:25:23;21.37;;;10.30;;
18445;SDS011;9352;50.888;4.466;2022-12-18T11:27:50;45.60;;;21.37;;
18445;SDS011;9352;50.888;4.466;2022-12-18T11:30:24;21.17;;;10.60;;
18445;SDS011;9352;50.888;4.466;2022-12-18T11:32:53;21.93;;;10.83;;
18445;SDS011;9352;50.888;4.466;2022-12-18T11:35:24;22.20;;;11.40;;
18445;SDS011;9352;50.888;4.466;2022-12-18T11:37:59;22.93;;;10.90;;
18445;SDS011;9352;50.888;4.466;2022-12-18T11:40:32;24.47;;;11.27;;
18445;SDS011;9352;50.888;4.466;2022-12-18T11:43:02;24.80;;;11.23;;
18445;SDS011;9352;50.888;4.466;2022-12-18T11:45:35;25.37;;;11.37;;
18445;SDS011;9352;50.888;4.466;2022-12-18T11:48:11;26.30;;;11.67;;
18445;SDS011;9352;50.888;4.466;2022-12-18T11:50:43;29.07;;;12.13;;
18445;SDS011;9352;50.888;4.466;2022-12-18T11:53:14;27.20;;;12.03;;
18445;SDS011;9352;50.888;4.466;2022-12-18T11:55:41;29.37;;;12.17;;
18445;SDS011;9352;50.888;4.466;2022-12-18T11:58:17;27.40;;;12.60;;
18445;SDS011;9352;50.888;4.466;2022-12-18T12:00:56;31.97;;;13.13;;
18445;SDS011;9352;50.888;4.466;2022-12-18T12:06:28;33.20;;;13.07;;
18445;SDS011;9352;50.888;4.466;2022-12-18T12:09:05;30.37;;;12.57;;
18445;SDS011;9352;50.888;4.466;2022-12-18T12:11:40;29.90;;;12.20;;
18445;SDS011;9352;50.888;4.466;2022-12-18T12:14:17;35.60;;;13.83;;
18445;SDS011;9352;50.888;4.466;2022-12-18T12:16:57;26.87;;;12.83;;
18445;SDS011;9352;50.888;4.466;2022-12-18T12:19:32;34.83;;;14.13;;
18445;SDS011;9352;50.888;4.466;2022-12-18T12:22:07;30.93;;;12.97;;
18445;SDS011;9352;50.888;4.466;2022-12-18T12:24:44;31.03;;;13.73;;
18445;SDS011;9352;50.888;4.466;2022-12-18T12:27:22;29.33;;;13.27;;
18445;SDS011;9352;50.888;4.466;2022-12-18T12:30:00;28.77;;;12.47;;
18445;SDS011;9352;50.888;4.466;2022-12-18T12:32:36;27.77;;;12.53;;
18445;SDS011;9352;50.888;4.466;2022-12-18T12:35:20;29.40;;;13.10;;
18445;SDS011;9352;50.888;4.466;2022-12-18T12:37:58;30.13;;;13.03;;
18445;SDS011;9352;50.888;4.466;2022-12-18T12:40:34;31.73;;;12.93;;
18445;SDS011;9352;50.888;4.466;2022-12-18T12:43:10;27.57;;;13.93;;
18445;SDS011;9352;50.888;4.466;2022-12-18T12:45:46;29.23;;;12.37;;
18445;SDS011;9352;50.888;4.466;2022-12-18T12:48:20;32.20;;;13.50;;
18445;SDS011;9352;50.888;4.466;2022-12-18T12:50:57;28.80;;;12.53;;
18445;SDS011;9352;50.888;4.466;2022-12-18T12:53:31;36.77;;;15.43;;
18445;SDS011;9352;50.888;4.466;2022-12-18T12:56:01;33.67;;;14.47;;
18445;SDS011;9352;50.888;4.466;2022-12-18T12:58:32;29.63;;;14.20;;
18445;SDS011;9352;50.888;4.466;2022-12-18T13:01:08;28.77;;;13.43;;
18445;SDS011;9352;50.888;4.466;2022-12-18T13:03:48;25.17;;;12.80;;
18445;SDS011;9352;50.888;4.466;2022-12-18T13:06:24;33.97;;;13.73;;
18445;SDS011;9352;50.888;4.466;2022-12-18T13:08:59;33.93;;;13.80;;
18445;SDS011;9352;50.888;4.466;2022-12-18T13:11:29;35.93;;;13.37;;
18445;SDS011;9352;50.888;4.466;2022-12-18T13:17:17;31.03;;;12.87;;
18445;SDS011;9352;50.888;4.466;2022-12-18T13:20:07;26.67;;;12.27;;
18445;SDS011;9352;50.888;4.466;2022-12-18T13:22:37;33.33;;;12.00;;
18445;SDS011;9352;50.888;4.466;2022-12-18T13:27:59;31.57;;;12.67;;
18445;SDS011;9352;50.888;4.466;2022-12-18T13:36:28;33.50;;;12.17;;
18445;SDS011;9352;50.888;4.466;2022-12-18T13:39:10;35.03;;;14.03;;
18445;SDS011;9352;50.888;4.466;2022-12-18T13:45:43;31.90;;;12.63;;
18445;SDS011;9352;50.888;4.466;2022-12-18T13:48:19;34.93;;;13.03;;
18445;SDS011;9352;50.888;4.466;2022-12-18T13:50:53;28.17;;;12.77;;
18445;SDS011;9352;50.888;4.466;2022-12-18T13:53:32;31.90;;;13.07;;
18445;SDS011;9352;50.888;4.466;2022-12-18T13:56:02;28.23;;;12.33;;
18445;SDS011;9352;50.888;4.466;2022-12-18T13:58:30;30.10;;;13.23;;
18445;SDS011;9352;50.888;4.466;2022-12-18T14:00:57;34.30;;;14.00;;
18445;SDS011;9352;50.888;4.466;2022-12-18T14:03:27;35.30;;;13.70;;
18445;SDS011;9352;50.888;4.466;2022-12-18T14:06:03;26.90;;;13.00;;
18445;SDS011;9352;50.888;4.466;2022-12-18T14:08:36;33.23;;;13.30;;
18445;SDS011;9352;50.888;4.466;2022-12-18T14:11:05;30.27;;;14.00;;
18445;SDS011;9352;50.888;4.466;2022-12-18T14:13:34;28.03;;;13.07;;
18445;SDS011;9352;50.888;4.466;2022-12-18T14:16:05;35.90;;;14.20;;
18445;SDS011;9352;50.888;4.466;2022-12-18T14:18:38;31.47;;;14.27;;
18445;SDS011;9352;50.888;4.466;2022-12-18T14:21:17;32.57;;;14.07;;
18445;SDS011;9352;50.888;4.466;2022-12-18T14:23:48;33.80;;;14.57;;
18445;SDS011;9352;50.888;4.466;2022-12-18T14:26:23;31.97;;;13.20;;
18445;SDS011;9352;50.888;4.466;2022-12-18T14:28:53;30.50;;;13.73;;
18445;SDS011;9352;50.888;4.466;2022-12-18T14:31:21;32.70;;;13.23;;
18445;SDS011;9352;50.888;4.466;2022-12-18T14:33:49;40.57;;;13.70;;
18445;SDS011;9352;50.888;4.466;2022-12-18T14:36:17;32.63;;;13.97;;
18445;SDS011;9352;50.888;4.466;2022-12-18T14:38:49;31.43;;;14.63;;
18445;SDS011;9352;50.888;4.466;2022-12-18T14:41:22;31.13;;;13.50;;
18445;SDS011;9352;50.888;4.466;2022-12-18T14:44:04;32.10;;;14.70;;
18445;SDS011;9352;50.888;4.466;2022-12-18T14:46:33;43.87;;;18.57;;
18445;SDS011;9352;50.888;4.466;2022-12-18T14:49:05;38.70;;;15.87;;
18445;SDS011;9352;50.888;4.466;2022-12-18T14:51:50;37.23;;;14.07;;
18445;SDS011;9352;50.888;4.466;2022-12-18T14:54:21;38.63;;;16.20;;
18445;SDS011;9352;50.888;4.466;2022-12-18T14:56:56;39.53;;;15.43;;
18445;SDS011;9352;50.888;4.466;2022-12-18T14:59:27;35.97;;;14.60;;
18445;SDS011;9352;50.888;4.466;2022-12-18T15:01:59;34.57;;;14.77;;
18445;SDS011;9352;50.888;4.466;2022-12-18T15:04:30;38.40;;;14.53;;
18445;SDS011;9352;50.888;4.466;2022-12-18T15:07:02;38.40;;;14.40;;
18445;SDS011;9352;50.888;4.466;2022-12-18T15:09:33;43.50;;;15.00;;
18445;SDS011;9352;50.888;4.466;2022-12-18T15:12:00;39.10;;;15.53;;